sensor_id;sensor_type;location;lat;lon;timestamp;P1;durP1;ratioP1;P2;durP2;ratioP2
19836;SDS011;10079;55.740;37.662;2022-07-26T00:03:11;9.50;;;8.30;;
19836;SDS011;10079;55.740;37.662;2022-07-26T00:05:56;10.00;;;8.30;;
19836;SDS011;10079;55.740;37.662;2022-07-26T00:08:40;9.57;;;8.40;;
19836;SDS011;10079;55.740;37.662;2022-07-26T00:11:21;9.07;;;7.80;;
19836;SDS011;10079;55.740;37.662;2022-07-26T00:14:03;9.90;;;8.30;;
19836;SDS011;10079;55.740;37.662;2022-07-26T00:16:43;9.23;;;8.20;;
19836;SDS011;10079;55.740;37.662;2022-07-26T00:19:24;8.87;;;7.97;;
19836;SDS011;10079;55.740;37.662;2022-07-26T00:22:13;9.83;;;8.57;;
19836;SDS011;10079;55.740;37.662;2022-07-26T00:24:57;11.57;;;8.50;;
19836;SDS011;10079;55.740;37.662;2022-07-26T00:27:41;10.30;;;8.70;;
19836;SDS011;10079;55.740;37.662;2022-07-26T00:30:25;11.70;;;8.67;;
19836;SDS011;10079;55.740;37.662;2022-07-26T00:33:07;9.27;;;8.23;;
19836;SDS011;10079;55.740;37.662;2022-07-26T00:35:48;9.40;;;8.23;;
19836;SDS011;10079;55.740;37.662;2022-07-26T00:38:29;10.13;;;8.30;;
19836;SDS011;10079;55.740;37.662;2022-07-26T00:41:10;9.80;;;8.37;;
19836;SDS011;10079;55.740;37.662;2022-07-26T00:43:52;11.70;;;8.80;;
19836;SDS011;10079;55.740;37.662;2022-07-26T00:46:36;9.87;;;8.67;;
19836;SDS011;10079;55.740;37.662;2022-07-26T00:49:17;12.60;;;9.30;;
19836;SDS011;10079;55.740;37.662;2022-07-26T00:51:58;13.43;;;9.50;;
19836;SDS011;10079;55.740;37.662;2022-07-26T00:54:40;10.77;;;8.80;;
19836;SDS011;10079;55.740;37.662;2022-07-26T00:57:20;10.00;;;8.27;;
19836;SDS011;10079;55.740;37.662;2022-07-26T01:00:05;11.33;;;8.60;;
19836;SDS011;10079;55.740;37.662;2022-07-26T01:02:46;10.77;;;9.03;;
19836;SDS011;10079;55.740;37.662;2022-07-26T01:05:27;10.73;;;9.13;;
19836;SDS011;10079;55.740;37.662;2022-07-26T01:08:08;12.30;;;9.20;;
19836;SDS011;10079;55.740;37.662;2022-07-26T01:10:49;10.60;;;8.73;;
19836;SDS011;10079;55.740;37.662;2022-07-26T01:13:30;11.17;;;9.00;;
19836;SDS011;10079;55.740;37.662;2022-07-26T01:16:11;11.53;;;9.40;;
19836;SDS011;10079;55.740;37.662;2022-07-26T01:18:52;13.43;;;9.87;;
19836;SDS011;10079;55.740;37.662;2022-07-26T01:21:33;12.57;;;8.53;;
19836;SDS011;10079;55.740;37.662;2022-07-26T01:24:14;11.00;;;8.43;;
19836;SDS011;10079;55.740;37.662;2022-07-26T01:26:58;12.23;;;9.83;;
19836;SDS011;10079;55.740;37.662;2022-07-26T01:29:40;12.77;;;9.70;;
19836;SDS011;10079;55.740;37.662;2022-07-26T01:32:20;13.07;;;9.30;;
19836;SDS011;10079;55.740;37.662;2022-07-26T01:35:02;12.40;;;9.70;;
19836;SDS011;10079;55.740;37.662;2022-07-26T01:37:43;10.37;;;8.70;;
19836;SDS011;10079;55.740;37.662;2022-07-26T01:40:24;12.93;;;10.03;;
19836;SDS011;10079;55.740;37.662;2022-07-26T01:43:05;13.73;;;9.83;;
19836;SDS011;10079;55.740;37.662;2022-07-26T01:45:46;13.97;;;10.77;;
19836;SDS011;10079;55.740;37.662;2022-07-26T01:48:27;12.70;;;9.47;;
19836;SDS011;10079;55.740;37.662;2022-07-26T01:51:08;12.47;;;9.23;;
19836;SDS011;10079;55.740;37.662;2022-07-26T01:54:01;12.80;;;9.93;;
19836;SDS011;10079;55.740;37.662;2022-07-26T01:56:45;11.70;;;9.40;;
19836;SDS011;10079;55.740;37.662;2022-07-26T01:59:26;13.60;;;9.70;;
19836;SDS011;10079;55.740;37.662;2022-07-26T02:02:06;14.07;;;10.20;;
19836;SDS011;10079;55.740;37.662;2022-07-26T02:04:47;11.97;;;9.53;;
19836;SDS011;10079;55.740;37.662;2022-07-26T02:07:38;12.87;;;10.07;;
19836;SDS011;10079;55.740;37.662;2022-07-26T02:10:20;13.33;;;9.77;;
19836;SDS011;10079;55.740;37.662;2022-07-26T02:23:52;13.07;;;9.87;;
19836;SDS011;10079;55.740;37.662;2022-07-26T02:26:36;10.50;;;9.27;;
19836;SDS011;10079;55.740;37.662;2022-07-26T02:29:17;12.77;;;10.03;;
19836;SDS011;10079;55.740;37.662;2022-07-26T02:31:58;13.10;;;9.73;;
19836;SDS011;10079;55.740;37.662;2022-07-26T02:34:39;13.80;;;9.63;;
19836;SDS011;10079;55.740;37.662;2022-07-26T02:37:28;11.27;;;9.03;;
19836;SDS011;10079;55.740;37.662;2022-07-26T02:40:10;15.00;;;9.77;;
19836;SDS011;10079;55.740;37.662;2022-07-26T02:42:55;14.03;;;10.33;;
19836;SDS011;10079;55.740;37.662;2022-07-26T02:45:36;14.40;;;10.00;;
19836;SDS011;10079;55.740;37.662;2022-07-26T02:48:20;10.93;;;9.60;;
19836;SDS011;10079;55.740;37.662;2022-07-26T02:51:05;10.97;;;9.37;;
19836;SDS011;10079;55.740;37.662;2022-07-26T02:53:46;11.27;;;9.40;;
19836;SDS011;10079;55.740;37.662;2022-07-26T02:56:39;12.90;;;9.70;;
19836;SDS011;10079;55.740;37.662;2022-07-26T02:59:20;11.87;;;9.50;;
19836;SDS011;10079;55.740;37.662;2022-07-26T03:02:04;11.47;;;9.40;;
19836;SDS011;10079;55.740;37.662;2022-07-26T03:04:45;12.30;;;8.77;;
19836;SDS011;10079;55.740;37.662;2022-07-26T03:07:27;13.00;;;9.47;;
19836;SDS011;10079;55.740;37.662;2022-07-26T03:10:08;10.87;;;9.50;;
19836;SDS011;10079;55.740;37.662;2022-07-26T03:12:52;13.10;;;9.90;;
19836;SDS011;10079;55.740;37.662;2022-07-26T03:15:36;10.17;;;9.07;;
19836;SDS011;10079;55.740;37.662;2022-07-26T03:18:20;10.93;;;9.00;;
19836;SDS011;10079;55.740;37.662;2022-07-26T03:21:02;11.10;;;8.85;;
19836;SDS011;10079;55.740;37.662;2022-07-26T03:23:43;10.32;;;8.52;;
19836;SDS011;10079;55.740;37.662;2022-07-26T03:26:28;9.65;;;8.05;;
19836;SDS011;10079;55.740;37.662;2022-07-26T03:39:39;10.68;;;9.68;;
19836;SDS011;10079;55.740;37.662;2022-07-26T03:42:21;9.75;;;8.85;;
19836;SDS011;10079;55.740;37.662;2022-07-26T03:45:02;10.70;;;9.43;;
19836;SDS011;10079;55.740;37.662;2022-07-26T03:47:43;10.38;;;9.30;;
19836;SDS011;10079;55.740;37.662;2022-07-26T03:50:25;9.82;;;8.90;;
19836;SDS011;10079;55.740;37.662;2022-07-26T03:53:09;9.85;;;8.95;;
19836;SDS011;10079;55.740;37.662;2022-07-26T03:55:53;10.45;;;9.00;;
19836;SDS011;10079;55.740;37.662;2022-07-26T03:58:34;9.73;;;8.73;;
19836;SDS011;10079;55.740;37.662;2022-07-26T04:01:18;12.18;;;8.80;;
19836;SDS011;10079;55.740;37.662;2022-07-26T04:04:00;10.30;;;8.90;;
19836;SDS011;10079;55.740;37.662;2022-07-26T04:06:41;9.15;;;8.25;;
19836;SDS011;10079;55.740;37.662;2022-07-26T04:09:22;9.23;;;8.43;;
19836;SDS011;10079;55.740;37.662;2022-07-26T04:12:03;8.63;;;7.82;;
19836;SDS011;10079;55.740;37.662;2022-07-26T04:14:45;8.77;;;7.90;;
19836;SDS011;10079;55.740;37.662;2022-07-26T04:17:26;10.02;;;9.05;;
19836;SDS011;10079;55.740;37.662;2022-07-26T04:20:11;9.10;;;7.97;;
19836;SDS011;10079;55.740;37.662;2022-07-26T04:22:52;8.82;;;8.13;;
19836;SDS011;10079;55.740;37.662;2022-07-26T04:25:33;9.23;;;8.32;;
19836;SDS011;10079;55.740;37.662;2022-07-26T04:28:14;8.85;;;7.95;;
19836;SDS011;10079;55.740;37.662;2022-07-26T04:30:56;9.65;;;8.68;;
19836;SDS011;10079;55.740;37.662;2022-07-26T04:33:37;9.40;;;8.52;;
19836;SDS011;10079;55.740;37.662;2022-07-26T04:36:21;9.32;;;8.43;;
19836;SDS011;10079;55.740;37.662;2022-07-26T04:39:02;9.00;;;8.20;;
19836;SDS011;10079;55.740;37.662;2022-07-26T04:41:42;9.13;;;8.25;;
19836;SDS011;10079;55.740;37.662;2022-07-26T04:44:23;9.68;;;8.77;;
19836;SDS011;10079;55.740;37.662;2022-07-26T04:47:04;8.63;;;7.82;;
19836;SDS011;10079;55.740;37.662;2022-07-26T04:49:48;9.48;;;7.78;;
19836;SDS011;10079;55.740;37.662;2022-07-26T04:52:29;9.40;;;8.50;;
19836;SDS011;10079;55.740;37.662;2022-07-26T04:55:10;9.10;;;8.20;;
19836;SDS011;10079;55.740;37.662;2022-07-26T04:57:50;8.75;;;7.85;;
19836;SDS011;10079;55.740;37.662;2022-07-26T05:00:35;9.23;;;8.07;;
19836;SDS011;10079;55.740;37.662;2022-07-26T05:03:15;8.15;;;7.45;;
19836;SDS011;10079;55.740;37.662;2022-07-26T05:16:52;8.75;;;7.87;;
19836;SDS011;10079;55.740;37.662;2022-07-26T05:19:36;10.32;;;8.98;;
19836;SDS011;10079;55.740;37.662;2022-07-26T05:33:15;8.65;;;7.95;;
19836;SDS011;10079;55.740;37.662;2022-07-26T05:36:05;11.00;;;8.90;;
19836;SDS011;10079;55.740;37.662;2022-07-26T05:39:01;9.15;;;8.25;;
19836;SDS011;10079;55.740;37.662;2022-07-26T05:41:42;9.18;;;8.38;;
19836;SDS011;10079;55.740;37.662;2022-07-26T05:44:33;9.13;;;8.30;;
19836;SDS011;10079;55.740;37.662;2022-07-26T05:47:17;9.18;;;8.27;;
19836;SDS011;10079;55.740;37.662;2022-07-26T05:49:59;9.15;;;8.35;;
19836;SDS011;10079;55.740;37.662;2022-07-26T05:52:43;9.45;;;8.52;;
19836;SDS011;10079;55.740;37.662;2022-07-26T05:55:27;9.60;;;8.68;;
19836;SDS011;10079;55.740;37.662;2022-07-26T05:58:11;9.73;;;8.70;;
19836;SDS011;10079;55.740;37.662;2022-07-26T06:01:04;9.18;;;8.32;;
19836;SDS011;10079;55.740;37.662;2022-07-26T06:03:49;10.82;;;9.73;;
19836;SDS011;10079;55.740;37.662;2022-07-26T06:06:33;9.45;;;8.68;;
19836;SDS011;10079;55.740;37.662;2022-07-26T06:09:14;10.50;;;9.48;;
19836;SDS011;10079;55.740;37.662;2022-07-26T06:11:58;9.35;;;8.60;;
19836;SDS011;10079;55.740;37.662;2022-07-26T06:14:39;9.30;;;8.32;;
19836;SDS011;10079;55.740;37.662;2022-07-26T06:17:24;10.88;;;9.80;;
19836;SDS011;10079;55.740;37.662;2022-07-26T06:20:08;9.75;;;8.85;;
19836;SDS011;10079;55.740;37.662;2022-07-26T06:22:59;9.95;;;8.90;;
19836;SDS011;10079;55.740;37.662;2022-07-26T06:25:42;11.18;;;9.23;;
19836;SDS011;10079;55.740;37.662;2022-07-26T06:28:24;10.05;;;9.15;;
19836;SDS011;10079;55.740;37.662;2022-07-26T06:31:05;9.68;;;8.80;;
19836;SDS011;10079;55.740;37.662;2022-07-26T06:33:46;8.68;;;7.97;;
19836;SDS011;10079;55.740;37.662;2022-07-26T06:36:30;9.43;;;8.63;;
19836;SDS011;10079;55.740;37.662;2022-07-26T06:39:14;9.63;;;8.77;;
19836;SDS011;10079;55.740;37.662;2022-07-26T06:41:56;8.98;;;8.13;;
19836;SDS011;10079;55.740;37.662;2022-07-26T06:44:37;9.48;;;8.68;;
19836;SDS011;10079;55.740;37.662;2022-07-26T06:47:18;10.20;;;9.20;;
19836;SDS011;10079;55.740;37.662;2022-07-26T06:49:59;9.93;;;8.88;;
19836;SDS011;10079;55.740;37.662;2022-07-26T06:52:40;10.50;;;9.50;;
19836;SDS011;10079;55.740;37.662;2022-07-26T06:55:29;9.57;;;8.73;;
19836;SDS011;10079;55.740;37.662;2022-07-26T06:58:10;8.98;;;8.18;;
19836;SDS011;10079;55.740;37.662;2022-07-26T07:00:51;8.95;;;8.23;;
19836;SDS011;10079;55.740;37.662;2022-07-26T07:03:32;9.43;;;8.70;;
19836;SDS011;10079;55.740;37.662;2022-07-26T07:06:16;9.30;;;8.60;;
19836;SDS011;10079;55.740;37.662;2022-07-26T07:08:57;10.20;;;9.02;;
19836;SDS011;10079;55.740;37.662;2022-07-26T07:11:38;8.93;;;8.23;;
19836;SDS011;10079;55.740;37.662;2022-07-26T07:14:19;10.45;;;9.20;;
19836;SDS011;10079;55.740;37.662;2022-07-26T07:17:00;8.65;;;7.85;;
19836;SDS011;10079;55.740;37.662;2022-07-26T07:19:44;8.27;;;7.57;;
19836;SDS011;10079;55.740;37.662;2022-07-26T07:22:25;8.75;;;8.05;;
19836;SDS011;10079;55.740;37.662;2022-07-26T07:25:06;8.07;;;7.43;;
19836;SDS011;10079;55.740;37.662;2022-07-26T07:27:50;8.55;;;7.72;;
19836;SDS011;10079;55.740;37.662;2022-07-26T07:30:31;8.80;;;8.00;;
19836;SDS011;10079;55.740;37.662;2022-07-26T07:33:14;9.43;;;8.52;;
19836;SDS011;10079;55.740;37.662;2022-07-26T07:35:55;9.00;;;8.20;;
19836;SDS011;10079;55.740;37.662;2022-07-26T07:38:35;8.98;;;8.20;;
19836;SDS011;10079;55.740;37.662;2022-07-26T07:41:16;9.57;;;8.65;;
19836;SDS011;10079;55.740;37.662;2022-07-26T07:43:56;9.30;;;8.48;;
19836;SDS011;10079;55.740;37.662;2022-07-26T07:46:38;10.07;;;9.27;;
19836;SDS011;10079;55.740;37.662;2022-07-26T07:49:18;8.95;;;8.25;;
19836;SDS011;10079;55.740;37.662;2022-07-26T07:51:59;8.90;;;8.00;;
19836;SDS011;10079;55.740;37.662;2022-07-26T07:54:40;8.98;;;8.27;;
19836;SDS011;10079;55.740;37.662;2022-07-26T07:57:24;9.20;;;8.50;;
19836;SDS011;10079;55.740;37.662;2022-07-26T08:00:18;9.55;;;8.75;;
19836;SDS011;10079;55.740;37.662;2022-07-26T08:13:49;10.10;;;9.23;;
19836;SDS011;10079;55.740;37.662;2022-07-26T08:16:33;9.10;;;8.50;;
19836;SDS011;10079;55.740;37.662;2022-07-26T08:19:15;9.10;;;8.40;;
19836;SDS011;10079;55.740;37.662;2022-07-26T08:32:46;10.52;;;9.50;;
19836;SDS011;10079;55.740;37.662;2022-07-26T08:35:27;9.48;;;8.68;;
19836;SDS011;10079;55.740;37.662;2022-07-26T08:38:11;9.27;;;8.57;;
19836;SDS011;10079;55.740;37.662;2022-07-26T08:40:55;10.30;;;9.38;;
19836;SDS011;10079;55.740;37.662;2022-07-26T08:43:36;9.73;;;8.93;;
19836;SDS011;10079;55.740;37.662;2022-07-26T08:46:21;9.77;;;8.98;;
19836;SDS011;10079;55.740;37.662;2022-07-26T08:49:13;10.40;;;9.18;;
19836;SDS011;10079;55.740;37.662;2022-07-26T08:51:57;9.77;;;9.07;;
19836;SDS011;10079;55.740;37.662;2022-07-26T08:54:42;9.52;;;8.70;;
19836;SDS011;10079;55.740;37.662;2022-07-26T08:57:36;9.20;;;8.48;;
19836;SDS011;10079;55.740;37.662;2022-07-26T09:00:20;9.73;;;8.93;;
19836;SDS011;10079;55.740;37.662;2022-07-26T09:03:02;9.65;;;8.75;;
19836;SDS011;10079;55.740;37.662;2022-07-26T09:05:46;9.90;;;9.10;;
19836;SDS011;10079;55.740;37.662;2022-07-26T09:08:30;9.88;;;9.07;;
19836;SDS011;10079;55.740;37.662;2022-07-26T09:11:25;9.77;;;9.07;;
19836;SDS011;10079;55.740;37.662;2022-07-26T09:14:06;9.65;;;8.77;;
19836;SDS011;10079;55.740;37.662;2022-07-26T09:19:39;9.45;;;8.68;;
19836;SDS011;10079;55.740;37.662;2022-07-26T09:22:20;10.35;;;9.45;;
19836;SDS011;10079;55.740;37.662;2022-07-26T09:25:18;12.90;;;11.80;;
19836;SDS011;10079;55.740;37.662;2022-07-26T09:27:49;10.52;;;9.73;;
19836;SDS011;10079;55.740;37.662;2022-07-26T09:30:33;10.02;;;9.23;;
19836;SDS011;10079;55.740;37.662;2022-07-26T09:33:17;9.70;;;8.93;;
19836;SDS011;10079;55.740;37.662;2022-07-26T09:36:04;10.45;;;9.52;;
19836;SDS011;10079;55.740;37.662;2022-07-26T09:38:45;10.98;;;9.88;;
19836;SDS011;10079;55.740;37.662;2022-07-26T09:41:33;9.65;;;8.68;;
19836;SDS011;10079;55.740;37.662;2022-07-26T09:44:20;9.93;;;9.02;;
19836;SDS011;10079;55.740;37.662;2022-07-26T09:47:04;9.75;;;8.77;;
19836;SDS011;10079;55.740;37.662;2022-07-26T09:49:45;10.10;;;9.30;;
19836;SDS011;10079;55.740;37.662;2022-07-26T09:52:29;9.68;;;8.77;;
19836;SDS011;10079;55.740;37.662;2022-07-26T09:55:10;10.77;;;9.73;;
19836;SDS011;10079;55.740;37.662;2022-07-26T09:57:54;10.52;;;9.63;;
19836;SDS011;10079;55.740;37.662;2022-07-26T10:00:35;9.50;;;8.80;;
19836;SDS011;10079;55.740;37.662;2022-07-26T10:03:19;9.90;;;9.02;;
19836;SDS011;10079;55.740;37.662;2022-07-26T10:06:03;9.60;;;8.75;;
19836;SDS011;10079;55.740;37.662;2022-07-26T10:08:47;10.63;;;9.68;;
19836;SDS011;10079;55.740;37.662;2022-07-26T10:11:31;10.80;;;9.38;;
19836;SDS011;10079;55.740;37.662;2022-07-26T10:26:10;9.82;;;8.93;;
19836;SDS011;10079;55.740;37.662;2022-07-26T10:28:51;10.65;;;9.68;;
19836;SDS011;10079;55.740;37.662;2022-07-26T10:31:32;10.52;;;9.52;;
19836;SDS011;10079;55.740;37.662;2022-07-26T10:37:20;10.93;;;9.82;;
19836;SDS011;10079;55.740;37.662;2022-07-26T10:43:05;10.70;;;9.55;;
19836;SDS011;10079;55.740;37.662;2022-07-26T10:45:46;10.93;;;9.88;;
19836;SDS011;10079;55.740;37.662;2022-07-26T10:48:27;10.35;;;9.27;;
19836;SDS011;10079;55.740;37.662;2022-07-26T10:51:22;11.10;;;10.02;;
19836;SDS011;10079;55.740;37.662;2022-07-26T10:53:59;9.88;;;8.98;;
19836;SDS011;10079;55.740;37.662;2022-07-26T10:56:41;9.95;;;9.10;;
19836;SDS011;10079;55.740;37.662;2022-07-26T11:02:16;9.68;;;8.88;;
19836;SDS011;10079;55.740;37.662;2022-07-26T11:05:00;9.85;;;9.00;;
19836;SDS011;10079;55.740;37.662;2022-07-26T11:07:47;10.57;;;9.68;;
19836;SDS011;10079;55.740;37.662;2022-07-26T11:10:30;10.75;;;9.65;;
19836;SDS011;10079;55.740;37.662;2022-07-26T11:13:23;10.15;;;9.25;;
19836;SDS011;10079;55.740;37.662;2022-07-26T11:16:07;10.93;;;9.25;;
19836;SDS011;10079;55.740;37.662;2022-07-26T11:29:38;10.18;;;9.35;;
19836;SDS011;10079;55.740;37.662;2022-07-26T11:43:06;10.77;;;9.82;;
19836;SDS011;10079;55.740;37.662;2022-07-26T11:45:51;10.52;;;9.63;;
19836;SDS011;10079;55.740;37.662;2022-07-26T11:48:45;10.15;;;9.25;;
19836;SDS011;10079;55.740;37.662;2022-07-26T11:51:39;10.95;;;9.98;;
19836;SDS011;10079;55.740;37.662;2022-07-26T11:54:24;10.23;;;9.32;;
19836;SDS011;10079;55.740;37.662;2022-07-26T11:57:18;10.23;;;9.23;;
19836;SDS011;10079;55.740;37.662;2022-07-26T12:00:11;10.50;;;9.43;;
19836;SDS011;10079;55.740;37.662;2022-07-26T12:02:56;10.55;;;9.65;;
19836;SDS011;10079;55.740;37.662;2022-07-26T12:05:40;10.68;;;9.70;;
19836;SDS011;10079;55.740;37.662;2022-07-26T12:11:37;10.85;;;9.85;;
19836;SDS011;10079;55.740;37.662;2022-07-26T12:14:23;11.27;;;10.18;;
19836;SDS011;10079;55.740;37.662;2022-07-26T12:17:11;14.43;;;11.45;;
19836;SDS011;10079;55.740;37.662;2022-07-26T12:19:51;10.38;;;9.30;;
19836;SDS011;10079;55.740;37.662;2022-07-26T12:22:32;11.73;;;9.90;;
19836;SDS011;10079;55.740;37.662;2022-07-26T12:25:22;11.35;;;10.25;;
19836;SDS011;10079;55.740;37.662;2022-07-26T12:27:57;10.82;;;9.82;;
19836;SDS011;10079;55.740;37.662;2022-07-26T12:30:41;11.43;;;10.35;;
19836;SDS011;10079;55.740;37.662;2022-07-26T12:33:26;10.43;;;9.32;;
19836;SDS011;10079;55.740;37.662;2022-07-26T12:38:57;10.82;;;9.82;;
19836;SDS011;10079;55.740;37.662;2022-07-26T12:41:40;12.60;;;10.95;;
19836;SDS011;10079;55.740;37.662;2022-07-26T12:44:22;12.37;;;11.10;;
19836;SDS011;10079;55.740;37.662;2022-07-26T12:47:03;11.93;;;10.82;;
19836;SDS011;10079;55.740;37.662;2022-07-26T12:49:44;11.75;;;10.70;;
19836;SDS011;10079;55.740;37.662;2022-07-26T12:52:25;12.10;;;10.50;;
19836;SDS011;10079;55.740;37.662;2022-07-26T12:55:10;11.70;;;10.60;;
19836;SDS011;10079;55.740;37.662;2022-07-26T12:57:54;14.05;;;11.30;;
19836;SDS011;10079;55.740;37.662;2022-07-26T13:00:36;11.65;;;10.45;;
19836;SDS011;10079;55.740;37.662;2022-07-26T13:03:18;12.90;;;10.90;;
19836;SDS011;10079;55.740;37.662;2022-07-26T13:05:59;11.55;;;10.45;;
19836;SDS011;10079;55.740;37.662;2022-07-26T13:08:40;12.35;;;11.25;;
19836;SDS011;10079;55.740;37.662;2022-07-26T13:11:21;12.57;;;11.23;;
19836;SDS011;10079;55.740;37.662;2022-07-26T13:14:02;14.05;;;10.38;;
19836;SDS011;10079;55.740;37.662;2022-07-26T13:16:47;13.10;;;11.38;;
19836;SDS011;10079;55.740;37.662;2022-07-26T13:19:37;11.65;;;10.55;;
19836;SDS011;10079;55.740;37.662;2022-07-26T13:22:21;11.90;;;10.77;;
19836;SDS011;10079;55.740;37.662;2022-07-26T13:25:02;12.05;;;10.85;;
19836;SDS011;10079;55.740;37.662;2022-07-26T13:27:55;12.48;;;11.20;;
19836;SDS011;10079;55.740;37.662;2022-07-26T13:30:36;11.77;;;10.68;;
19836;SDS011;10079;55.740;37.662;2022-07-26T13:33:20;13.95;;;11.95;;
19836;SDS011;10079;55.740;37.662;2022-07-26T13:36:01;13.05;;;11.52;;
19836;SDS011;10079;55.740;37.662;2022-07-26T13:38:42;13.30;;;11.73;;
19836;SDS011;10079;55.740;37.662;2022-07-26T13:41:23;15.30;;;12.05;;
19836;SDS011;10079;55.740;37.662;2022-07-26T13:44:05;13.20;;;11.40;;
19836;SDS011;10079;55.740;37.662;2022-07-26T13:46:46;14.18;;;10.90;;
19836;SDS011;10079;55.740;37.662;2022-07-26T13:49:27;11.93;;;10.45;;
19836;SDS011;10079;55.740;37.662;2022-07-26T13:52:08;12.43;;;10.77;;
19836;SDS011;10079;55.740;37.662;2022-07-26T13:54:52;11.48;;;10.13;;
19836;SDS011;10079;55.740;37.662;2022-07-26T13:57:34;10.45;;;9.45;;
19836;SDS011;10079;55.740;37.662;2022-07-26T14:00:15;10.18;;;9.27;;
19836;SDS011;10079;55.740;37.662;2022-07-26T14:02:57;10.40;;;9.30;;
19836;SDS011;10079;55.740;37.662;2022-07-26T14:05:37;11.38;;;10.20;;
19836;SDS011;10079;55.740;37.662;2022-07-26T14:08:19;10.13;;;9.15;;
19836;SDS011;10079;55.740;37.662;2022-07-26T14:11:00;10.90;;;9.82;;
19836;SDS011;10079;55.740;37.662;2022-07-26T14:13:50;9.32;;;8.40;;
19836;SDS011;10079;55.740;37.662;2022-07-26T14:16:34;9.65;;;8.75;;
19836;SDS011;10079;55.740;37.662;2022-07-26T14:19:26;10.88;;;9.00;;
19836;SDS011;10079;55.740;37.662;2022-07-26T14:22:17;11.45;;;8.98;;
19836;SDS011;10079;55.740;37.662;2022-07-26T14:25:07;10.23;;;9.15;;
19836;SDS011;10079;55.740;37.662;2022-07-26T14:27:49;10.18;;;8.70;;
19836;SDS011;10079;55.740;37.662;2022-07-26T14:38:07;11.65;;;9.25;;
19836;SDS011;10079;55.740;37.662;2022-07-26T14:51:32;11.60;;;9.43;;
19836;SDS011;10079;55.740;37.662;2022-07-26T14:54:17;10.18;;;9.20;;
19836;SDS011;10079;55.740;37.662;2022-07-26T14:57:01;12.07;;;9.50;;
19836;SDS011;10079;55.740;37.662;2022-07-26T14:59:54;11.90;;;9.43;;
19836;SDS011;10079;55.740;37.662;2022-07-26T15:02:40;11.55;;;10.55;;
19836;SDS011;10079;55.740;37.662;2022-07-26T15:05:25;11.35;;;10.15;;
19836;SDS011;10079;55.740;37.662;2022-07-26T15:08:10;10.70;;;9.38;;
19836;SDS011;10079;55.740;37.662;2022-07-26T15:10:54;12.40;;;10.68;;
19836;SDS011;10079;55.740;37.662;2022-07-26T15:13:35;11.27;;;10.07;;
19836;SDS011;10079;55.740;37.662;2022-07-26T15:16:24;16.10;;;11.60;;
19836;SDS011;10079;55.740;37.662;2022-07-26T15:19:13;12.68;;;10.40;;
19836;SDS011;10079;55.740;37.662;2022-07-26T15:21:54;12.88;;;10.23;;
19836;SDS011;10079;55.740;37.662;2022-07-26T15:24:35;12.63;;;11.32;;
19836;SDS011;10079;55.740;37.662;2022-07-26T15:27:16;10.32;;;9.23;;
19836;SDS011;10079;55.740;37.662;2022-07-26T15:30:09;11.30;;;10.20;;
19836;SDS011;10079;55.740;37.662;2022-07-26T15:32:59;11.23;;;10.07;;
19836;SDS011;10079;55.740;37.662;2022-07-26T15:35:40;12.48;;;10.18;;
19836;SDS011;10079;55.740;37.662;2022-07-26T15:38:24;13.50;;;10.70;;
19836;SDS011;10079;55.740;37.662;2022-07-26T15:41:09;12.20;;;10.93;;
19836;SDS011;10079;55.740;37.662;2022-07-26T15:43:50;11.50;;;10.30;;
19836;SDS011;10079;55.740;37.662;2022-07-26T15:46:39;11.40;;;9.63;;
19836;SDS011;10079;55.740;37.662;2022-07-26T15:49:20;11.07;;;9.80;;
19836;SDS011;10079;55.740;37.662;2022-07-26T15:52:02;13.02;;;9.77;;
19836;SDS011;10079;55.740;37.662;2022-07-26T15:54:42;11.40;;;9.02;;
19836;SDS011;10079;55.740;37.662;2022-07-26T15:57:35;10.65;;;9.43;;
19836;SDS011;10079;55.740;37.662;2022-07-26T16:00:19;11.45;;;10.02;;
19836;SDS011;10079;55.740;37.662;2022-07-26T16:03:01;11.10;;;10.00;;
19836;SDS011;10079;55.740;37.662;2022-07-26T16:05:53;13.57;;;10.18;;
19836;SDS011;10079;55.740;37.662;2022-07-26T16:08:35;10.25;;;9.27;;
19836;SDS011;10079;55.740;37.662;2022-07-26T16:11:15;10.73;;;9.68;;
19836;SDS011;10079;55.740;37.662;2022-07-26T16:13:57;12.00;;;9.55;;
19836;SDS011;10079;55.740;37.662;2022-07-26T16:16:41;12.07;;;9.68;;
19836;SDS011;10079;55.740;37.662;2022-07-26T16:19:22;10.48;;;9.35;;
19836;SDS011;10079;55.740;37.662;2022-07-26T16:22:03;9.98;;;8.98;;
19836;SDS011;10079;55.740;37.662;2022-07-26T16:24:48;10.68;;;9.68;;
19836;SDS011;10079;55.740;37.662;2022-07-26T16:27:31;11.70;;;10.45;;
19836;SDS011;10079;55.740;37.662;2022-07-26T16:30:13;11.38;;;9.25;;
19836;SDS011;10079;55.740;37.662;2022-07-26T16:32:53;9.68;;;8.68;;
19836;SDS011;10079;55.740;37.662;2022-07-26T16:35:34;10.07;;;9.07;;
19836;SDS011;10079;55.740;37.662;2022-07-26T16:38:15;11.77;;;9.00;;
19836;SDS011;10079;55.740;37.662;2022-07-26T16:40:57;10.27;;;9.27;;
19836;SDS011;10079;55.740;37.662;2022-07-26T16:43:38;13.75;;;11.68;;
19836;SDS011;10079;55.740;37.662;2022-07-26T16:46:19;12.60;;;9.32;;
19836;SDS011;10079;55.740;37.662;2022-07-26T16:49:00;10.80;;;9.23;;
19836;SDS011;10079;55.740;37.662;2022-07-26T16:51:41;10.18;;;9.15;;
19836;SDS011;10079;55.740;37.662;2022-07-26T16:54:22;10.98;;;9.13;;
19836;SDS011;10079;55.740;37.662;2022-07-26T16:57:03;10.35;;;8.75;;
19836;SDS011;10079;55.740;37.662;2022-07-26T16:59:43;9.57;;;8.68;;
19836;SDS011;10079;55.740;37.662;2022-07-26T17:02:24;9.75;;;8.32;;
19836;SDS011;10079;55.740;37.662;2022-07-26T17:05:05;10.15;;;8.98;;
19836;SDS011;10079;55.740;37.662;2022-07-26T17:07:48;10.25;;;8.50;;
19836;SDS011;10079;55.740;37.662;2022-07-26T17:10:28;10.68;;;7.82;;
19836;SDS011;10079;55.740;37.662;2022-07-26T17:13:18;10.18;;;8.60;;
19836;SDS011;10079;55.740;37.662;2022-07-26T17:16:07;11.32;;;8.25;;
19836;SDS011;10079;55.740;37.662;2022-07-26T17:29:43;10.05;;;8.95;;
19836;SDS011;10079;55.740;37.662;2022-07-26T17:42:58;11.82;;;9.23;;
19836;SDS011;10079;55.740;37.662;2022-07-26T17:45:39;11.63;;;9.15;;
19836;SDS011;10079;55.740;37.662;2022-07-26T17:48:32;11.05;;;9.90;;
19836;SDS011;10079;55.740;37.662;2022-07-26T17:51:23;10.38;;;9.38;;
19836;SDS011;10079;55.740;37.662;2022-07-26T17:54:07;12.82;;;9.38;;
19836;SDS011;10079;55.740;37.662;2022-07-26T17:56:52;9.43;;;8.52;;
19836;SDS011;10079;55.740;37.662;2022-07-26T18:03:37;10.93;;;8.65;;
19836;SDS011;10079;55.740;37.662;2022-07-26T18:06:18;10.80;;;9.27;;
19836;SDS011;10079;55.740;37.662;2022-07-26T18:09:00;10.23;;;9.20;;
19836;SDS011;10079;55.740;37.662;2022-07-26T18:11:41;11.95;;;10.63;;
19836;SDS011;10079;55.740;37.662;2022-07-26T18:14:25;11.20;;;9.90;;
19836;SDS011;10079;55.740;37.662;2022-07-26T18:17:09;11.12;;;9.63;;
19836;SDS011;10079;55.740;37.662;2022-07-26T18:19:50;13.32;;;10.00;;
19836;SDS011;10079;55.740;37.662;2022-07-26T18:22:35;13.13;;;10.15;;
19836;SDS011;10079;55.740;37.662;2022-07-26T18:25:16;11.38;;;10.18;;
19836;SDS011;10079;55.740;37.662;2022-07-26T18:27:57;13.43;;;10.18;;
19836;SDS011;10079;55.740;37.662;2022-07-26T18:30:41;12.57;;;10.35;;
19836;SDS011;10079;55.740;37.662;2022-07-26T18:33:26;12.50;;;10.45;;
19836;SDS011;10079;55.740;37.662;2022-07-26T18:36:10;13.62;;;10.57;;
19836;SDS011;10079;55.740;37.662;2022-07-26T18:38:51;10.57;;;9.48;;